world map with SBJR marked

SBJR - Airport

This information may not be accurate or current and is not valid for navigation or flight planning. No warranty of fitness for any purpose is made or implied.

flag of Rio de Janeiroflag of Brazil

Donate via PayPal

Additional information is available on the NEW Great Circle Mapper

Location
City:  Rio de Janeiro, Rio de Janeiro, Brazil
Name:Jacarepaguá-Roberto Marinho Airport
ICAO:SBJR

Details
Type:Airport (Aerodrome, Airfield)
Use:Public/Civil
Latitude:22°59'12"S (-22.986666)
Longitude:43°22'19"W (-43.371943)
Elevation:9 ft (3 m)
Runways:1
Longest:2953 × 98 ft (900 × 30 m)

Time
Timezone:UTC+31:08 (DST+34:08)
Local Time:

Weather
METAR:SBJR  041300Z 17001KT 9999 -RA FEW025 FEW030TCU BKN040 BKN090 26/24 Q1013
TAF:SBJR  (expired)

Related Locations
Nearby:
Farthest:IWO: 12123 mi / 19510 km
Iwo Jima [Iwo Jima AB], Iwo Jima Island, 13, JP

Find:

   beyond  
but within

Other Information
Maps:
Links:
Sources:

  


 


Great Circle Mapper   Great Circle Mapper
Great Circle Mapper FAQ   Great Circle Mapper FAQ
  Karl's Home Page
KLS˛   KLS˛ Home
   GC on Facebook
Airlines of the World   Airlines of the World
Donate via PayPal


Copyright © 2004-2019, Karl L. Swartz. All rights reserved.
All trademarks mentioned herein belong to their respective owners.

Please see credits for attribution and copyright information.

Karl Swartz <karl@kls2.com>
  Powered by FreeBSD
Valid HTML 4.01!
Labeled with ICRA
hCard Microformat
Geo Microformat